Time;durP1;ratioP1;P1;durP2;ratioP2;P2;SDS_P1;SDS_P2;PMS_P1;PMS_P2;Temp;Humidity;BMP_temperature;BMP_pressure;BME280_temperature;BME280_humidity;BME280_pressure;Samples;Min_cycle;Max_cycle;Signal;HPM_P1;HPM_P2
2023/06/20 06:02:06;;;;;;;6.57;5.88;;;;;;;;;;10505898;22;1571673;-87
2023/06/20 06:07:26;;;;;;;10.57;6.70;;;;;;;;;;10535812;28;20493;-87
2023/06/20 06:13:06;;;;;;;7.60;5.80;;;;;;;;;;10537818;28;20040;-87
2023/06/20 06:18:08;;;;;;;9.98;6.85;;;;;;;;;;10536104;28;20050;-87
2023/06/20 06:23:16;;;;;;;9.70;7.85;;;;;;;;;;10555040;28;20028;-86
2023/06/20 06:28:17;;;;;;;7.03;6.32;;;;;;;;;;10547555;28;20023;-85
2023/06/20 06:33:19;;;;;;;8.02;6.07;;;;;;;;;;10540295;28;20016;-85
2023/06/20 06:38:20;;;;;;;9.52;6.13;;;;;;;;;;10534805;28;20024;-85
2023/06/20 06:43:21;;;;;;;7.88;6.22;;;;;;;;;;10539639;28;20024;-85
2023/06/20 06:48:22;;;;;;;6.93;5.15;;;;;;;;;;10541312;28;20056;-87
2023/06/20 06:53:24;;;;;;;10.25;6.32;;;;;;;;;;10544741;28;20074;-81
2023/06/20 06:58:25;;;;;;;7.40;5.70;;;;;;;;;;10531667;28;20028;-81
2023/06/20 07:03:26;;;;;;;5.45;4.30;;;;;;;;;;10511395;28;20108;-81
2023/06/20 07:08:27;;;;;;;10.65;6.72;;;;;;;;;;10512518;28;20114;-82
2023/06/20 07:13:28;;;;;;;8.30;5.63;;;;;;;;;;10511240;28;20016;-82
2023/06/20 07:18:29;;;;;;;9.77;5.20;;;;;;;;;;10510803;28;20143;-83
2023/06/20 07:23:32;;;;;;;6.53;5.40;;;;;;;;;;10512059;28;20032;-82
2023/06/20 07:28:33;;;;;;;9.02;5.15;;;;;;;;;;10511099;28;20097;-82
2023/06/20 07:33:34;;;;;;;8.02;6.47;;;;;;;;;;10514065;28;20025;-83
2023/06/20 07:38:35;;;;;;;7.60;6.07;;;;;;;;;;10513146;28;20032;-84
2023/06/20 07:43:36;;;;;;;6.45;5.03;;;;;;;;;;10512302;28;20048;-82
2023/06/20 07:48:47;;;;;;;6.82;5.72;;;;;;;;;;10511040;28;20074;-82
2023/06/20 07:54:01;;;;;;;6.75;5.97;;;;;;;;;;10500653;28;20036;-83
2023/06/20 07:59:02;;;;;;;7.63;5.50;;;;;;;;;;10512933;28;20084;-83
2023/06/20 08:04:31;;;;;;;6.93;5.03;;;;;;;;;;10511454;28;20063;-84
2023/06/20 08:09:32;;;;;;;7.05;6.15;;;;;;;;;;10531796;28;20035;-83
2023/06/20 08:14:37;;;;;;;6.35;5.72;;;;;;;;;;10517949;28;20394;-82
2023/06/20 08:19:38;;;;;;;10.63;5.10;;;;;;;;;;10514720;28;20087;-82
2023/06/20 08:24:39;;;;;;;7.85;5.10;;;;;;;;;;10511732;28;20029;-82
2023/06/20 08:29:40;;;;;;;5.70;4.90;;;;;;;;;;10512163;28;20020;-81
2023/06/20 08:34:41;;;;;;;6.80;5.40;;;;;;;;;;10513355;28;20119;-82
2023/06/20 08:39:43;;;;;;;7.30;5.28;;;;;;;;;;10512492;28;20048;-82
2023/06/20 08:44:44;;;;;;;7.88;5.05;;;;;;;;;;10510627;28;20097;-82
2023/06/20 08:49:45;;;;;;;8.23;5.00;;;;;;;;;;10510854;28;20058;-81
2023/06/20 08:54:47;;;;;;;9.85;8.85;;;;;;;;;;10515646;28;20039;-82
2023/06/20 08:59:48;;;;;;;5.93;5.00;;;;;;;;;;10511893;28;20111;-82
2023/06/20 09:05:02;;;;;;;6.25;4.32;;;;;;;;;;10509852;28;20020;-82
2023/06/20 09:10:07;;;;;;;6.18;5.00;;;;;;;;;;10511049;28;20439;-83
2023/06/20 09:15:12;;;;;;;6.88;5.07;;;;;;;;;;10511012;28;20119;-82
2023/06/20 09:20:16;;;;;;;5.72;4.00;;;;;;;;;;10510666;28;20021;-82
2023/06/20 09:25:25;;;;;;;10.68;9.65;;;;;;;;;;10510589;28;20024;-84
2023/06/20 09:30:30;;;;;;;5.68;3.97;;;;;;;;;;10510802;28;20028;-83
2023/06/20 09:35:32;;;;;;;4.78;4.28;;;;;;;;;;10510801;28;20316;-82
2023/06/20 09:40:43;;;;;;;4.20;3.80;;;;;;;;;;10509619;28;20052;-82
2023/06/20 09:45:44;;;;;;;10.35;9.25;;;;;;;;;;10509599;28;20067;-83
2023/06/20 09:50:50;;;;;;;5.38;4.18;;;;;;;;;;10508714;28;20030;-81
2023/06/20 09:55:56;;;;;;;4.05;3.67;;;;;;;;;;10510494;28;20036;-84
2023/06/20 10:00:58;;;;;;;3.70;3.40;;;;;;;;;;10511469;28;20084;-84
2023/06/20 10:06:02;;;;;;;4.93;4.43;;;;;;;;;;10510408;28;20201;-81
2023/06/20 10:11:11;;;;;;;4.32;3.92;;;;;;;;;;10513425;28;20052;-83
2023/06/20 10:16:12;;;;;;;4.10;3.70;;;;;;;;;;10513615;28;20073;-83
2023/06/20 10:21:13;;;;;;;3.95;3.55;;;;;;;;;;10514522;28;20024;-84
2023/06/20 10:26:26;;;;;;;5.28;3.95;;;;;;;;;;10514466;28;20056;-84
2023/06/20 10:31:47;;;;;;;3.83;3.53;;;;;;;;;;10514166;28;20105;-82
2023/06/20 10:36:52;;;;;;;5.07;4.32;;;;;;;;;;10521113;28;20028;-82
2023/06/20 10:41:53;;;;;;;3.65;3.35;;;;;;;;;;10524477;28;20027;-83
2023/06/20 10:46:54;;;;;;;4.25;3.65;;;;;;;;;;10525369;28;20031;-82
2023/06/20 10:51:57;;;;;;;3.80;3.45;;;;;;;;;;10538030;28;20040;-80
2023/06/20 10:56:58;;;;;;;5.55;5.05;;;;;;;;;;10549566;28;20024;-82
2023/06/20 11:01:59;;;;;;;4.50;4.10;;;;;;;;;;10548951;28;20037;-82
2023/06/20 11:07:05;;;;;;;4.32;3.85;;;;;;;;;;10547525;28;20025;-80
2023/06/20 11:12:10;;;;;;;7.47;4.10;;;;;;;;;;10517317;28;20067;-79
2023/06/20 11:17:11;;;;;;;4.95;4.20;;;;;;;;;;10514496;28;20054;-79
2023/06/20 11:22:12;;;;;;;6.38;5.03;;;;;;;;;;10513661;28;20028;-79
2023/06/20 11:27:14;;;;;;;4.32;3.85;;;;;;;;;;10529977;28;20043;-79
2023/06/20 11:32:15;;;;;;;5.25;4.22;;;;;;;;;;10520622;28;20029;-79
2023/06/20 11:37:16;;;;;;;4.70;4.20;;;;;;;;;;10511628;28;20025;-79
2023/06/20 11:42:17;;;;;;;3.78;3.30;;;;;;;;;;10510560;28;20462;-79
2023/06/20 11:47:18;;;;;;;5.68;3.85;;;;;;;;;;10510285;28;20466;-82
2023/06/20 11:52:35;;;;;;;4.20;3.55;;;;;;;;;;10513366;28;20017;-81
2023/06/20 11:57:37;;;;;;;4.63;3.67;;;;;;;;;;10512805;28;20127;-81
2023/06/20 12:02:39;;;;;;;4.05;3.60;;;;;;;;;;10515301;28;20051;-82
2023/06/20 12:07:53;;;;;;;3.97;3.58;;;;;;;;;;10531170;28;20059;-80
2023/06/20 12:12:54;;;;;;;3.72;3.42;;;;;;;;;;10525186;28;20111;-79
2023/06/20 12:17:55;;;;;;;5.93;3.53;;;;;;;;;;10511058;28;20048;-80
2023/06/20 12:22:57;;;;;;;3.97;3.67;;;;;;;;;;10509607;28;20035;-80
2023/06/20 12:27:58;;;;;;;3.95;3.65;;;;;;;;;;10510865;28;20024;-80
2023/06/20 12:33:03;;;;;;;4.75;3.90;;;;;;;;;;10512506;28;20402;-80
2023/06/20 12:38:04;;;;;;;4.60;3.80;;;;;;;;;;10508690;28;20521;-79
2023/06/20 12:43:05;;;;;;;4.75;4.07;;;;;;;;;;10509659;28;20021;-82
2023/06/20 12:48:06;;;;;;;5.00;4.60;;;;;;;;;;10507519;28;20463;-79
2023/06/20 12:53:07;;;;;;;4.75;3.60;;;;;;;;;;10507718;28;20075;-83
2023/06/20 12:58:13;;;;;;;6.05;5.53;;;;;;;;;;10508662;28;20054;-78
2023/06/20 13:03:14;;;;;;;5.22;4.10;;;;;;;;;;10507551;28;20028;-79
2023/06/20 13:08:15;;;;;;;4.75;3.85;;;;;;;;;;10506672;28;20119;-79
2023/06/20 13:13:16;;;;;;;4.32;3.92;;;;;;;;;;10509057;28;20470;-81
2023/06/20 13:18:17;;;;;;;5.00;4.50;;;;;;;;;;10507429;28;20085;-79
2023/06/20 13:23:18;;;;;;;4.82;3.53;;;;;;;;;;10507515;28;20102;-80
2023/06/20 13:28:21;;;;;;;7.38;6.32;;;;;;;;;;10507570;28;20058;-79
2023/06/20 13:33:22;;;;;;;4.85;4.20;;;;;;;;;;10507971;28;20115;-80
2023/06/20 13:38:24;;;;;;;4.90;3.95;;;;;;;;;;10512567;28;20044;-83
2023/06/20 13:43:25;;;;;;;5.75;4.95;;;;;;;;;;10508364;28;20035;-81
2023/06/20 13:48:26;;;;;;;6.80;4.38;;;;;;;;;;10507537;28;20101;-80
2023/06/20 13:53:27;;;;;;;4.55;4.15;;;;;;;;;;10511004;28;20027;-81
2023/06/20 13:58:28;;;;;;;5.72;5.07;;;;;;;;;;10508244;28;20028;-80
2023/06/20 14:03:29;;;;;;;5.82;4.30;;;;;;;;;;10504317;28;20048;-79
2023/06/20 14:08:30;;;;;;;5.32;4.82;;;;;;;;;;10507715;28;20123;-79
2023/06/20 14:13:31;;;;;;;5.05;4.20;;;;;;;;;;10513927;28;20031;-81
2023/06/20 14:18:32;;;;;;;6.45;5.20;;;;;;;;;;10512663;28;20032;-80
2023/06/20 14:23:33;;;;;;;5.07;4.55;;;;;;;;;;10515520;28;20054;-80
2023/06/20 14:28:35;;;;;;;5.57;4.75;;;;;;;;;;10514555;28;20142;-80
2023/06/20 14:33:37;;;;;;;8.32;4.60;;;;;;;;;;10516048;28;20185;-81
2023/06/20 14:38:40;;;;;;;5.13;4.63;;;;;;;;;;10539323;28;20021;-82
2023/06/20 14:43:41;;;;;;;5.10;4.60;;;;;;;;;;10537784;28;20032;-82
2023/06/20 14:48:42;;;;;;;5.05;4.53;;;;;;;;;;10517368;28;20027;-82
2023/06/20 14:53:46;;;;;;;6.35;4.93;;;;;;;;;;10515608;28;20032;-79
2023/06/20 14:58:47;;;;;;;6.03;5.15;;;;;;;;;;10514933;28;20035;-80
2023/06/20 15:03:48;;;;;;;5.90;4.85;;;;;;;;;;10516812;28;20033;-81
2023/06/20 15:08:50;;;;;;;6.20;5.13;;;;;;;;;;10516954;28;20110;-81
2023/06/20 15:13:51;;;;;;;5.47;4.97;;;;;;;;;;10516405;28;20016;-81
2023/06/20 15:18:52;;;;;;;5.60;4.97;;;;;;;;;;10514756;28;20024;-79
2023/06/20 15:23:54;;;;;;;6.28;5.63;;;;;;;;;;10521975;28;20044;-80
2023/06/20 15:28:55;;;;;;;7.38;6.70;;;;;;;;;;10515108;28;20177;-80
2023/06/20 15:33:56;;;;;;;7.40;6.70;;;;;;;;;;10512914;28;20020;-80
2023/06/20 15:38:57;;;;;;;6.00;5.45;;;;;;;;;;10513049;28;20091;-82
2023/06/20 15:43:58;;;;;;;5.40;4.93;;;;;;;;;;10513663;28;20020;-82
2023/06/20 15:49:01;;;;;;;6.05;5.22;;;;;;;;;;10513711;28;20048;-81
2023/06/20 15:54:02;;;;;;;21.00;9.93;;;;;;;;;;10514350;28;20536;-80
2023/06/20 15:59:03;;;;;;;19.35;8.70;;;;;;;;;;10514633;28;20164;-81
2023/06/20 16:04:04;;;;;;;21.48;14.63;;;;;;;;;;10511392;28;20032;-82
2023/06/20 16:09:05;;;;;;;13.13;8.90;;;;;;;;;;10510714;28;20107;-79
2023/06/20 16:14:06;;;;;;;6.55;5.85;;;;;;;;;;10506974;28;20025;-79
2023/06/20 16:19:07;;;;;;;11.35;9.30;;;;;;;;;;10508275;28;20044;-81
2023/06/20 16:24:09;;;;;;;10.05;6.60;;;;;;;;;;10513315;28;20024;-84
2023/06/20 16:29:10;;;;;;;8.85;7.30;;;;;;;;;;10517233;28;20031;-83
2023/06/20 16:34:11;;;;;;;8.82;7.38;;;;;;;;;;10522267;28;20051;-83
2023/06/20 16:39:12;;;;;;;7.10;5.80;;;;;;;;;;10538144;28;20028;-82
2023/06/20 16:44:13;;;;;;;7.50;6.70;;;;;;;;;;10539901;28;20027;-82
2023/06/20 16:49:14;;;;;;;9.13;7.45;;;;;;;;;;10538986;28;20120;-82
2023/06/20 16:54:16;;;;;;;9.90;7.65;;;;;;;;;;10539358;28;20029;-83
2023/06/20 16:59:17;;;;;;;10.15;8.40;;;;;;;;;;10539754;28;20029;-84
2023/06/20 17:04:18;;;;;;;7.97;6.97;;;;;;;;;;10538474;28;20028;-83
2023/06/20 17:09:19;;;;;;;8.32;7.32;;;;;;;;;;10537770;28;20028;-83
2023/06/20 17:14:22;;;;;;;9.90;8.50;;;;;;;;;;10535229;28;20033;-83
2023/06/20 17:19:23;;;;;;;7.75;6.93;;;;;;;;;;10529817;28;20033;-85
2023/06/20 17:24:24;;;;;;;8.55;7.63;;;;;;;;;;10517150;28;20013;-84
2023/06/20 17:29:25;;;;;;;8.55;7.07;;;;;;;;;;10517099;28;20066;-84
2023/06/20 17:34:27;;;;;;;8.77;7.88;;;;;;;;;;10514801;28;20032;-84
2023/06/20 17:39:28;;;;;;;9.18;7.13;;;;;;;;;;10520587;28;20050;-83
2023/06/20 17:44:29;;;;;;;8.82;7.22;;;;;;;;;;10531729;28;20075;-83
2023/06/20 17:49:30;;;;;;;7.72;6.90;;;;;;;;;;10545570;28;20023;-84
2023/06/20 17:54:43;;;;;;;6.82;6.10;;;;;;;;;;10545673;28;20367;-83
2023/06/20 17:59:44;;;;;;;7.10;6.38;;;;;;;;;;10531243;22;20104;31
2023/06/20 18:27:57;;;;;;;9.38;5.55;;;;;;;;;;10417839;28;20045;-88
